Abegall, Kentucky
Current Conditions -  °F | °C
As of 11:35 PM on Tuesday 21 Oct 2014 (Local Time) from KFGX Reporting Station
Clear Clear  
Wind Chill: 40°   Ceiling: Unl
Heat Index: 44°   Visibility: 10mi
Dew Point: 40°   Wind: 7mph
Humidity: 85%   Direction: 20°NNE
Pressure: 30.17"   Gusts: NA
Location:  38.6546°N, 83.9578°W
Report Text: KFGX 220335Z AUTO 02006KT 10SM CLR 07/04 A3017 RMK AO2 T00670043
Loading
Personal Weather Stations






























Interactive Weather Map
Tropical Storm Tracking
New forecast layout! Learn more

10-Day Weather Forecast

Advertisements
Track Severe Weather on mobile